Time;durP1;ratioP1;P1;durP2;ratioP2;P2;SDS_P1;SDS_P2;PMS_P1;PMS_P2;Temp;Humidity;BMP_temperature;BMP_pressure;BME280_temperature;BME280_humidity;BME280_pressure;Samples;Min_cycle;Max_cycle;Signal;HPM_P1;HPM_P2
2023/04/04 05:09:28;;;;;;;;;;;;;;;;;;5034718;28;19999;-44
2023/04/04 05:11:55;;;;;;;;;;;;;;;;;;5050039;28;19913;-44
2023/04/04 05:14:21;;;;;;;;;;;;;;;;;;5032301;28;19912;-44
2023/04/04 05:16:47;;;;;;;;;;;;;;;;;;5028521;28;20395;-44
2023/04/04 05:19:12;;;;;;;;;;;;;;;;;;5012460;28;19905;-44
2023/04/04 05:21:39;;;;;;;;;;;;;;;;;;5029887;28;19968;-44
2023/04/04 05:24:05;;;;;;;;;;;;;;;;;;5030273;28;19932;-44
2023/04/04 05:26:31;;;;;;;;;;;;;;;;;;5030001;28;19921;-44
2023/04/04 05:28:58;;;;;;;;;;;;;;;;;;5029713;28;19935;-43
2023/04/04 05:31:24;;;;;;;;;;;;;;;;;;5029906;28;19920;-43
2023/04/04 05:33:50;;;;;;;;;;;;;;;;;;5029811;28;20357;-44
2023/04/04 05:36:16;;;;;;;;;;;;;;;;;;5029921;28;19920;-44
2023/04/04 05:38:42;;;;;;;;;;;;;;;;;;5029783;28;19913;-44
2023/04/04 05:41:08;;;;;;;;;;;;;;;;;;5030012;28;19927;-44
2023/04/04 05:43:34;;;;;;;;;;;;;;;;;;5029765;28;19916;-44
2023/04/04 05:46:00;;;;;;;;;;;;;;;;;;5029380;28;19913;-44
2023/04/04 05:48:25;;;;;;;;;;;;;;;;;;5009345;28;19916;-44
2023/04/04 05:50:51;;;;;;;;;;;;;;;;;;5033503;28;19938;-44
2023/04/04 05:53:17;;;;;;;;;;;;;;;;;;5031552;28;19913;-45
2023/04/04 05:55:43;;;;;;;;;;;;;;;;;;5029665;28;19908;-44
2023/04/04 05:58:09;;;;;;;;;;;;;;;;;;5028379;28;19917;-44
2023/04/04 06:00:36;;;;;;;;;;;;;;;;;;5034644;28;19916;-44
2023/04/04 06:03:03;;;;;;;;;;;;;;;;;;5049316;28;19910;-44
2023/04/04 06:05:28;;;;;;;;;;;;;;;;;;5018148;28;19909;-44
2023/04/04 06:07:55;;;;;;;;;;;;;;;;;;5026432;28;19913;-46
2023/04/04 06:10:20;;;;;;;;;;;;;;;;;;5028936;28;19944;-44
2023/04/04 06:12:46;;;;;;;;;;;;;;;;;;5015527;28;19959;-43
2023/04/04 06:15:12;;;;;;;;;;;;;;;;;;5010570;28;19909;-43
2023/04/04 06:17:38;;;;;;;;;;;;;;;;;;5010428;28;20380;-44
2023/04/04 06:20:04;;;;;;;;;;;;;;;;;;5009178;28;19905;-44
2023/04/04 06:22:30;;;;;;;;;;;;;;;;;;5008160;28;19956;-44
2023/04/04 06:24:56;;;;;;;;;;;;;;;;;;5010085;28;19913;-43
2023/04/04 06:27:22;;;;;;;;;;;;;;;;;;5021411;28;20368;-43
2023/04/04 06:29:49;;;;;;;;;;;;;;;;;;5011232;28;20292;-44
2023/04/04 06:32:15;;;;;;;;;;;;;;;;;;5009210;28;19913;-43
2023/04/04 06:34:41;;;;;;;;;;;;;;;;;;5008696;28;19967;-45
2023/04/04 06:37:06;;;;;;;;;;;;;;;;;;5008802;28;19920;-44
2023/04/04 06:39:33;;;;;;;;;;;;;;;;;;5009130;28;19924;-43
2023/04/04 06:41:59;;;;;;;;;;;;;;;;;;5008878;28;20040;-44
2023/04/04 06:44:25;;;;;;;;;;;;;;;;;;4991568;28;19992;-44
2023/04/04 06:46:51;;;;;;;;;;;;;;;;;;5008894;28;19976;-44
2023/04/04 06:49:16;;;;;;;;;;;;;;;;;;5008787;28;19920;-43
2023/04/04 06:51:43;;;;;;;;;;;;;;;;;;5008238;28;19916;-44
2023/04/04 06:54:09;;;;;;;;;;;;;;;;;;5009171;28;19906;-44
2023/04/04 06:56:36;;;;;;;;;;;;;;;;;;5009123;28;19996;-43
2023/04/04 06:59:02;;;;;;;;;;;;;;;;;;5008883;28;19906;-44
2023/04/04 07:01:28;;;;;;;;;;;;;;;;;;5009154;28;19909;-43
2023/04/04 07:03:54;;;;;;;;;;;;;;;;;;5007758;28;20363;-44
2023/04/04 07:06:20;;;;;;;;;;;;;;;;;;5002110;28;19953;-43
2023/04/04 07:08:46;;;;;;;;;;;;;;;;;;5007976;28;19909;-43
2023/04/04 07:11:12;;;;;;;;;;;;;;;;;;5002362;28;19920;-44
2023/04/04 07:13:38;;;;;;;;;;;;;;;;;;5031366;28;19916;-43
2023/04/04 07:16:04;;;;;;;;;;;;;;;;;;5028787;28;19909;-44
2023/04/04 07:18:31;;;;;;;;;;;;;;;;;;5030683;28;19962;-44
2023/04/04 07:20:57;;;;;;;;;;;;;;;;;;5030835;28;19949;-44
2023/04/04 07:23:23;;;;;;;;;;;;;;;;;;5027554;28;20295;-43
2023/04/04 07:25:49;;;;;;;;;;;;;;;;;;5031188;28;19909;-43
2023/04/04 07:28:15;;;;;;;;;;;;;;;;;;5030036;28;19913;-44
2023/04/04 07:30:41;;;;;;;;;;;;;;;;;;5030695;28;19913;-44
2023/04/04 07:33:07;;;;;;;;;;;;;;;;;;5030312;28;19916;-43
2023/04/04 07:43:20;;;;;;;;;;;;;;;;;;5709108;22;20019;-44
2023/04/04 07:45:46;;;;;;;;;;;;;;;;;;5052199;28;19999;-43
2023/04/04 07:48:12;;;;;;;;;;;;;;;;;;5069640;28;19915;-44
2023/04/04 07:50:38;;;;;;;;;;;;;;;;;;5070269;28;19908;-45
2023/04/04 07:53:04;;;;;;;;;;;;;;;;;;5070015;28;19931;-44
2023/04/04 07:55:30;;;;;;;;;;;;;;;;;;5070339;28;19905;-47
2023/04/04 07:57:57;;;;;;;;;;;;;;;;;;5069610;28;19908;-44
2023/04/04 08:00:25;;;;;;;;;;;;;;;;;;5068866;28;19916;-43
2023/04/04 08:02:51;;;;;;;;;;;;;;;;;;5069216;28;20006;-43
2023/04/04 08:05:17;;;;;;;;;;;;;;;;;;5069206;28;19970;-43
2023/04/04 08:07:43;;;;;;;;;;;;;;;;;;5069563;28;19914;-43
2023/04/04 08:10:09;;;;;;;;;;;;;;;;;;5069974;28;19911;-44
2023/04/04 08:12:35;;;;;;;;;;;;;;;;;;5070089;28;19909;-43
2023/04/04 08:15:01;;;;;;;;;;;;;;;;;;5069518;28;19961;-44
2023/04/04 08:17:27;;;;;;;;;;;;;;;;;;5069357;28;19981;-43
2023/04/04 08:19:53;;;;;;;;;;;;;;;;;;5069494;28;19920;-45
2023/04/04 08:22:19;;;;;;;;;;;;;;;;;;5068718;28;19908;-43
2023/04/04 08:24:45;;;;;;;;;;;;;;;;;;5067935;28;20019;-43
2023/04/04 08:27:11;;;;;;;;;;;;;;;;;;5067968;28;19974;-43
2023/04/04 08:29:37;;;;;;;;;;;;;;;;;;5049767;28;20364;-44
2023/04/04 08:32:03;;;;;;;;;;;;;;;;;;5067965;28;19912;-43
2023/04/04 08:34:29;;;;;;;;;;;;;;;;;;5068241;28;19908;-44
2023/04/04 08:36:55;;;;;;;;;;;;;;;;;;5068012;28;19904;-44
2023/04/04 08:39:21;;;;;;;;;;;;;;;;;;5068185;28;20429;-43
2023/04/04 08:41:47;;;;;;;;;;;;;;;;;;5068738;28;19947;-45
2023/04/04 08:44:13;;;;;;;;;;;;;;;;;;5067526;28;19970;-44
2023/04/04 08:46:41;;;;;;;;;;;;;;;;;;5067682;28;20344;-44
2023/04/04 08:49:06;;;;;;;;;;;;;;;;;;5067478;28;19947;-43
2023/04/04 08:51:32;;;;;;;;;;;;;;;;;;5068190;28;19951;-44
2023/04/04 08:53:59;;;;;;;;;;;;;;;;;;5067588;28;20336;-43
2023/04/04 08:56:25;;;;;;;;;;;;;;;;;;5067684;28;19905;-44
2023/04/04 08:58:51;;;;;;;;;;;;;;;;;;5067118;28;19926;-44
2023/04/04 09:01:17;;;;;;;;;;;;;;;;;;5068104;28;19915;-44
2023/04/04 09:03:43;;;;;;;;;;;;;;;;;;5067600;28;19927;-44
2023/04/04 09:06:08;;;;;;;;;;;;;;;;;;5067409;28;19913;-43
2023/04/04 09:08:35;;;;;;;;;;;;;;;;;;5065887;28;19904;-45
2023/04/04 09:11:01;;;;;;;;;;;;;;;;;;5068558;28;19904;-44
2023/04/04 09:13:27;;;;;;;;;;;;;;;;;;5066754;28;19915;-43
2023/04/04 09:15:54;;;;;;;;;;;;;;;;;;5067303;28;20627;-43
2023/04/04 09:18:21;;;;;;;;;;;;;;;;;;5067116;28;19912;-44
2023/04/04 09:20:47;;;;;;;;;;;;;;;;;;5067158;28;20383;-45
2023/04/04 09:23:13;;;;;;;;;;;;;;;;;;5067455;28;19972;-43
2023/04/04 09:25:39;;;;;;;;;;;;;;;;;;5067056;28;20398;-43
2023/04/04 09:28:06;;;;;;;;;;;;;;;;;;5067242;28;19912;-45
2023/04/04 09:30:32;;;;;;;;;;;;;;;;;;5066683;28;19904;-43
2023/04/04 09:32:58;;;;;;;;;;;;;;;;;;5067826;28;19912;-44
2023/04/04 09:35:24;;;;;;;;;;;;;;;;;;5067031;28;20288;-44
2023/04/04 09:37:51;;;;;;;;;;;;;;;;;;5066859;28;19931;-43
2023/04/04 09:40:17;;;;;;;;;;;;;;;;;;5066998;28;20007;-44
2023/04/04 09:42:43;;;;;;;;;;;;;;;;;;5066398;28;20014;-44
2023/04/04 09:45:09;;;;;;;;;;;;;;;;;;5066515;28;19912;-45
2023/04/04 09:47:35;;;;;;;;;;;;;;;;;;5066613;28;19999;-44
2023/04/04 09:50:01;;;;;;;;;;;;;;;;;;5067544;28;20340;-44
2023/04/04 09:52:27;;;;;;;;;;;;;;;;;;5067025;28;20284;-44
2023/04/04 09:54:53;;;;;;;;;;;;;;;;;;5066541;28;19997;-44
2023/04/04 09:57:18;;;;;;;;;;;;;;;;;;5048281;28;19957;-44
2023/04/04 09:59:45;;;;;;;;;;;;;;;;;;5066414;28;20172;-44
2023/04/04 10:02:12;;;;;;;;;;;;;;;;;;5066433;28;19904;-44
2023/04/04 10:04:39;;;;;;;;;;;;;;;;;;5066254;28;19909;-43
2023/04/04 10:07:05;;;;;;;;;;;;;;;;;;5066232;28;19947;-44
2023/04/04 10:09:32;;;;;;;;;;;;;;;;;;5066783;28;19905;-44
2023/04/04 10:11:58;;;;;;;;;;;;;;;;;;5067240;28;20216;-47
2023/04/04 10:14:24;;;;;;;;;;;;;;;;;;5066357;28;19912;-43
2023/04/04 10:16:50;;;;;;;;;;;;;;;;;;5066185;28;19911;-44
2023/04/04 10:19:17;;;;;;;;;;;;;;;;;;5048190;28;19904;-45
2023/04/04 10:21:43;;;;;;;;;;;;;;;;;;5066084;28;19961;-44
2023/04/04 10:24:09;;;;;;;;;;;;;;;;;;5066211;28;20372;-45
2023/04/04 10:26:35;;;;;;;;;;;;;;;;;;5065529;28;20337;-46
2023/04/04 10:29:02;;;;;;;;;;;;;;;;;;5066865;28;19962;-44
2023/04/04 10:31:29;;;;;;;;;;;;;;;;;;5066549;28;19947;-45
2023/04/04 10:33:55;;;;;;;;;;;;;;;;;;5066220;28;19911;-44
2023/04/04 10:36:21;;;;;;;;;;;;;;;;;;5065940;28;19904;-46
2023/04/04 10:38:48;;;;;;;;;;;;;;;;;;5065277;28;20447;-45
2023/04/04 10:41:14;;;;;;;;;;;;;;;;;;5065386;28;19912;-46
2023/04/04 10:43:43;;;;;;;;;;;;;;;;;;5065668;28;19972;-46
2023/04/04 10:46:09;;;;;;;;;;;;;;;;;;5065798;28;19913;-44
2023/04/04 10:48:35;;;;;;;;;;;;;;;;;;5065262;28;20349;-45
2023/04/04 10:51:01;;;;;;;;;;;;;;;;;;5065746;28;20003;-46
2023/04/04 10:53:27;;;;;;;;;;;;;;;;;;5067741;28;19913;-45
2023/04/04 10:55:53;;;;;;;;;;;;;;;;;;5066809;28;19963;-44
2023/04/04 10:58:20;;;;;;;;;;;;;;;;;;5046415;28;19973;-44
2023/04/04 11:00:46;;;;;;;;;;;;;;;;;;5070122;28;19965;-47
2023/04/04 11:03:13;;;;;;;;;;;;;;;;;;5056909;28;19909;-44
2023/04/04 11:05:40;;;;;;;;;;;;;;;;;;5052670;28;19934;-47
2023/04/04 11:08:07;;;;;;;;;;;;;;;;;;5052382;28;19962;-45
2023/04/04 11:10:33;;;;;;;;;;;;;;;;;;5063264;28;19908;-45
2023/04/04 11:13:06;;;;;;;;;;;;;;;;;;5046015;28;19909;-45
2023/04/04 11:15:32;;;;;;;;;;;;;;;;;;5046678;28;19943;-44
2023/04/04 11:17:58;;;;;;;;;;;;;;;;;;5068806;28;19907;-45
2023/04/04 11:20:24;;;;;;;;;;;;;;;;;;5066637;28;19919;-44
2023/04/04 11:22:51;;;;;;;;;;;;;;;;;;5066724;28;19911;-44
2023/04/04 11:25:17;;;;;;;;;;;;;;;;;;5066498;28;19975;-45
2023/04/04 11:27:43;;;;;;;;;;;;;;;;;;5066733;28;20069;-44
2023/04/04 11:30:09;;;;;;;;;;;;;;;;;;5066651;28;20420;-45
2023/04/04 11:32:35;;;;;;;;;;;;;;;;;;5066620;28;19916;-48
2023/04/04 11:35:01;;;;;;;;;;;;;;;;;;5066366;28;20393;-44
2023/04/04 11:37:27;;;;;;;;;;;;;;;;;;5066180;28;19995;-45
2023/04/04 11:39:57;;;;;;;;;;;;;;;;;;5066462;28;20429;-48
2023/04/04 11:42:23;;;;;;;;;;;;;;;;;;5066346;28;20042;-44
2023/04/04 11:44:49;;;;;;;;;;;;;;;;;;5066681;28;19912;-45
2023/04/04 11:47:15;;;;;;;;;;;;;;;;;;5065128;28;19912;-44
2023/04/04 11:49:41;;;;;;;;;;;;;;;;;;5067102;28;19912;-44
2023/04/04 11:52:08;;;;;;;;;;;;;;;;;;5066419;28;19908;-45
2023/04/04 11:54:33;;;;;;;;;;;;;;;;;;5074833;28;20435;-45
2023/04/04 11:57:02;;;;;;;;;;;;;;;;;;5070858;28;19913;-45
2023/04/04 11:59:29;;;;;;;;;;;;;;;;;;5070170;28;19957;-44
2023/04/04 12:01:55;;;;;;;;;;;;;;;;;;5068885;28;19912;-45
2023/04/04 12:04:21;;;;;;;;;;;;;;;;;;5070257;28;19954;-47
2023/04/04 12:06:50;;;;;;;;;;;;;;;;;;5070339;28;19912;-45
2023/04/04 12:09:17;;;;;;;;;;;;;;;;;;5069643;28;19931;-46
2023/04/04 12:11:44;;;;;;;;;;;;;;;;;;5069634;28;19919;-46
2023/04/04 12:14:10;;;;;;;;;;;;;;;;;;5070327;28;19918;-46
2023/04/04 12:16:36;;;;;;;;;;;;;;;;;;5069920;28;19991;-44
2023/04/04 12:19:02;;;;;;;;;;;;;;;;;;5070450;28;20003;-49
2023/04/04 12:21:28;;;;;;;;;;;;;;;;;;5069900;28;19912;-48
2023/04/04 12:23:54;;;;;;;;;;;;;;;;;;5069858;28;20013;-46
2023/04/04 12:26:20;;;;;;;;;;;;;;;;;;5070055;28;19923;-44
2023/04/04 12:28:46;;;;;;;;;;;;;;;;;;5070352;28;19948;-46
2023/04/04 12:31:12;;;;;;;;;;;;;;;;;;5070931;28;19927;-46
2023/04/04 12:33:38;;;;;;;;;;;;;;;;;;5070079;28;19916;-44
2023/04/04 12:36:05;;;;;;;;;;;;;;;;;;5070640;28;20051;-45
2023/04/04 12:38:31;;;;;;;;;;;;;;;;;;5069938;28;19943;-45
2023/04/04 12:40:57;;;;;;;;;;;;;;;;;;5069487;28;20314;-45
2023/04/04 12:43:23;;;;;;;;;;;;;;;;;;5070054;28;20006;-45
2023/04/04 12:45:50;;;;;;;;;;;;;;;;;;5069890;28;19935;-45
2023/04/04 12:48:17;;;;;;;;;;;;;;;;;;5070448;28;19958;-46
2023/04/04 12:50:42;;;;;;;;;;;;;;;;;;5070464;28;19908;-47
2023/04/04 12:53:08;;;;;;;;;;;;;;;;;;5069993;28;19916;-45
2023/04/04 12:55:34;;;;;;;;;;;;;;;;;;5069542;28;19958;-45
2023/04/04 12:58:01;;;;;;;;;;;;;;;;;;5069692;28;19916;-45
2023/04/04 13:00:27;;;;;;;;;;;;;;;;;;5069974;28;19959;-45
2023/04/04 13:02:53;;;;;;;;;;;;;;;;;;5069380;28;19908;-45
2023/04/04 13:05:21;;;;;;;;;;;;;;;;;;5067013;28;19913;-45
2023/04/04 13:07:47;;;;;;;;;;;;;;;;;;5070275;28;19911;-45
2023/04/04 13:10:16;;;;;;;;;;;;;;;;;;5070266;28;19908;-48
2023/04/04 13:12:42;;;;;;;;;;;;;;;;;;5067219;28;19908;-46
2023/04/04 13:15:10;;;;;;;;;;;;;;;;;;5070920;28;20420;-46
2023/04/04 13:17:36;;;;;;;;;;;;;;;;;;5052691;28;19931;-44
2023/04/04 13:20:03;;;;;;;;;;;;;;;;;;5069360;28;19955;-47
2023/04/04 13:22:29;;;;;;;;;;;;;;;;;;5067597;28;19912;-45
2023/04/04 13:24:55;;;;;;;;;;;;;;;;;;5067169;28;20422;-44
2023/04/04 13:27:27;;;;;;;;;;;;;;;;;;5069854;28;19929;-48
2023/04/04 13:29:53;;;;;;;;;;;;;;;;;;5067295;28;19919;-45
2023/04/04 13:32:19;;;;;;;;;;;;;;;;;;5069739;28;19908;-45
2023/04/04 13:34:45;;;;;;;;;;;;;;;;;;5069629;28;20327;-45
2023/04/04 13:37:11;;;;;;;;;;;;;;;;;;5069276;28;20286;-45
2023/04/04 13:39:37;;;;;;;;;;;;;;;;;;5066652;28;19958;-44
2023/04/04 13:42:04;;;;;;;;;;;;;;;;;;5068388;28;20336;-48
2023/04/04 13:44:30;;;;;;;;;;;;;;;;;;5069682;28;19922;-48
2023/04/04 14:17:11;;;;;;;;;;;;;;;;;;5054636;28;19912;-48
2023/04/04 14:19:37;;;;;;;;;;;;;;;;;;5049558;28;20359;-48
2023/04/04 14:22:04;;;;;;;;;;;;;;;;;;5061986;28;19908;-44
2023/04/04 14:24:30;;;;;;;;;;;;;;;;;;5069823;28;19909;-45
2023/04/04 14:26:56;;;;;;;;;;;;;;;;;;5069255;28;20000;-44
2023/04/04 14:29:22;;;;;;;;;;;;;;;;;;5068198;28;19904;-45
2023/04/04 14:31:48;;;;;;;;;;;;;;;;;;5069696;28;19927;-44
2023/04/04 14:34:14;;;;;;;;;;;;;;;;;;5068892;28;20372;-45
2023/04/04 14:36:41;;;;;;;;;;;;;;;;;;5069556;28;20396;-45
2023/04/04 14:39:07;;;;;;;;;;;;;;;;;;5069360;28;19955;-45
2023/04/04 14:41:32;;;;;;;;;;;;;;;;;;5069619;28;19946;-44
2023/04/04 14:43:58;;;;;;;;;;;;;;;;;;5069069;28;19916;-44
2023/04/04 14:46:25;;;;;;;;;;;;;;;;;;5069530;28;19939;-45
2023/04/04 14:48:52;;;;;;;;;;;;;;;;;;5065528;28;19966;-44
2023/04/04 14:51:20;;;;;;;;;;;;;;;;;;5069739;28;19908;-44
2023/04/04 14:53:46;;;;;;;;;;;;;;;;;;5069020;28;19955;-45
2023/04/04 14:56:12;;;;;;;;;;;;;;;;;;5068762;28;20399;-45
2023/04/04 14:58:38;;;;;;;;;;;;;;;;;;5068747;28;19919;-44
2023/04/04 15:01:04;;;;;;;;;;;;;;;;;;5068860;28;19909;-46
2023/04/04 15:03:30;;;;;;;;;;;;;;;;;;5068724;28;19904;-44
2023/04/04 15:05:56;;;;;;;;;;;;;;;;;;5068354;28;19916;-45
2023/04/04 15:08:22;;;;;;;;;;;;;;;;;;5066922;28;19913;-45
2023/04/04 15:10:48;;;;;;;;;;;;;;;;;;5074650;28;19947;-45
2023/04/04 15:13:14;;;;;;;;;;;;;;;;;;5073353;28;19915;-45
2023/04/04 15:15:40;;;;;;;;;;;;;;;;;;5065292;28;19912;-46
2023/04/04 15:18:07;;;;;;;;;;;;;;;;;;5066018;28;20023;-44
2023/04/04 15:20:33;;;;;;;;;;;;;;;;;;5078471;28;19915;-46
2023/04/04 15:22:59;;;;;;;;;;;;;;;;;;5088189;28;19908;-44
2023/04/04 15:25:26;;;;;;;;;;;;;;;;;;5086631;28;19922;-45
2023/04/04 15:27:51;;;;;;;;;;;;;;;;;;5088457;28;19919;-44
2023/04/04 15:30:17;;;;;;;;;;;;;;;;;;5092312;28;19908;-46
2023/04/04 15:32:43;;;;;;;;;;;;;;;;;;5092210;28;19908;-44
2023/04/04 15:35:09;;;;;;;;;;;;;;;;;;5093041;28;19915;-44
2023/04/04 15:37:35;;;;;;;;;;;;;;;;;;5092058;28;19939;-45
2023/04/04 15:40:01;;;;;;;;;;;;;;;;;;5092115;28;19908;-43
2023/04/04 15:42:28;;;;;;;;;;;;;;;;;;5091971;28;19942;-44
2023/04/04 15:44:54;;;;;;;;;;;;;;;;;;5091302;28;19946;-44
2023/04/04 15:47:20;;;;;;;;;;;;;;;;;;5091565;28;19915;-44
2023/04/04 15:49:46;;;;;;;;;;;;;;;;;;5088312;28;19907;-44
2023/04/04 15:52:12;;;;;;;;;;;;;;;;;;5093570;28;19919;-43
2023/04/04 15:54:38;;;;;;;;;;;;;;;;;;5090758;28;20301;-45
2023/04/04 15:57:04;;;;;;;;;;;;;;;;;;5089541;28;19908;-44
2023/04/04 15:59:30;;;;;;;;;;;;;;;;;;5090515;28;19923;-43
2023/04/04 16:01:56;;;;;;;;;;;;;;;;;;5089535;28;20438;-45
2023/04/04 16:04:22;;;;;;;;;;;;;;;;;;5090297;28;20002;-45
2023/04/04 16:06:48;;;;;;;;;;;;;;;;;;5088963;28;19908;-45
2023/04/04 16:09:14;;;;;;;;;;;;;;;;;;5090916;28;20007;-46
2023/04/04 16:11:40;;;;;;;;;;;;;;;;;;5091598;28;19927;-44
2023/04/04 16:14:08;;;;;;;;;;;;;;;;;;5091845;28;19908;-43
2023/04/04 16:16:34;;;;;;;;;;;;;;;;;;5091937;28;19908;-44
2023/04/04 16:19:00;;;;;;;;;;;;;;;;;;5090271;28;19904;-43
2023/04/04 16:21:26;;;;;;;;;;;;;;;;;;5091346;28;19911;-44
2023/04/04 16:23:52;;;;;;;;;;;;;;;;;;5088474;28;19923;-44
2023/04/04 16:26:19;;;;;;;;;;;;;;;;;;5090469;28;19912;-43
2023/04/04 16:28:46;;;;;;;;;;;;;;;;;;5090213;28;19914;-44
2023/04/04 16:31:11;;;;;;;;;;;;;;;;;;5091158;28;19907;-43
2023/04/04 16:33:37;;;;;;;;;;;;;;;;;;5090679;28;19914;-43
2023/04/04 16:36:03;;;;;;;;;;;;;;;;;;5090503;28;19939;-44
2023/04/04 16:38:29;;;;;;;;;;;;;;;;;;5089974;28;19930;-44
2023/04/04 16:40:55;;;;;;;;;;;;;;;;;;5090481;28;19904;-43
2023/04/04 16:43:21;;;;;;;;;;;;;;;;;;5089899;28;19943;-44
2023/04/04 16:45:47;;;;;;;;;;;;;;;;;;5090301;28;19973;-43
2023/04/04 16:48:13;;;;;;;;;;;;;;;;;;5090773;28;19915;-46
2023/04/04 16:50:39;;;;;;;;;;;;;;;;;;5089077;28;19911;-44
2023/04/04 16:53:05;;;;;;;;;;;;;;;;;;5090068;28;19970;-44
2023/04/04 16:55:31;;;;;;;;;;;;;;;;;;5103866;28;19903;-44
2023/04/04 16:57:57;;;;;;;;;;;;;;;;;;5098309;28;20645;-45
2023/04/04 17:00:23;;;;;;;;;;;;;;;;;;5090116;28;19930;-44
2023/04/04 17:02:49;;;;;;;;;;;;;;;;;;5089611;28;19908;-44
2023/04/04 17:05:15;;;;;;;;;;;;;;;;;;5089793;28;19962;-45
2023/04/04 17:07:41;;;;;;;;;;;;;;;;;;5087480;28;19981;-46
2023/04/04 17:10:06;;;;;;;;;;;;;;;;;;5095828;28;20006;-44
2023/04/04 17:12:32;;;;;;;;;;;;;;;;;;5089694;28;19912;-45
2023/04/04 17:14:58;;;;;;;;;;;;;;;;;;5088210;28;19957;-44
2023/04/04 17:17:24;;;;;;;;;;;;;;;;;;5092353;28;19911;-44
2023/04/04 17:19:50;;;;;;;;;;;;;;;;;;5108820;28;19904;-44
2023/04/04 17:22:16;;;;;;;;;;;;;;;;;;5103433;28;19907;-44
2023/04/04 17:24:42;;;;;;;;;;;;;;;;;;5088610;28;19912;-44
2023/04/04 17:27:08;;;;;;;;;;;;;;;;;;5087257;28;19912;-45
2023/04/04 17:29:34;;;;;;;;;;;;;;;;;;5088634;28;20029;-44
2023/04/04 17:32:00;;;;;;;;;;;;;;;;;;5089643;28;19927;-44
2023/04/04 17:34:26;;;;;;;;;;;;;;;;;;5089136;28;19962;-45
2023/04/04 17:36:52;;;;;;;;;;;;;;;;;;5088586;28;20002;-43
2023/04/04 17:39:18;;;;;;;;;;;;;;;;;;5088280;28;19929;-43
2023/04/04 17:41:47;;;;;;;;;;;;;;;;;;5089396;28;19908;-44
2023/04/04 17:44:13;;;;;;;;;;;;;;;;;;5087912;28;19927;-45
2023/04/04 17:46:39;;;;;;;;;;;;;;;;;;5087434;28;20402;-44
2023/04/04 17:49:06;;;;;;;;;;;;;;;;;;5087777;28;19912;-45
2023/04/04 17:51:32;;;;;;;;;;;;;;;;;;5083377;28;20021;-43
2023/04/04 17:53:58;;;;;;;;;;;;;;;;;;5067715;28;20302;-43
2023/04/04 17:56:25;;;;;;;;;;;;;;;;;;5070325;28;19914;-42
2023/04/04 17:58:52;;;;;;;;;;;;;;;;;;5086710;28;20275;-43
2023/04/04 18:01:18;;;;;;;;;;;;;;;;;;5068328;28;19919;-43
2023/04/04 18:03:44;;;;;;;;;;;;;;;;;;5084797;28;19908;-42
2023/04/04 18:06:10;;;;;;;;;;;;;;;;;;5086300;28;19922;-42
2023/04/04 18:08:36;;;;;;;;;;;;;;;;;;5085878;28;19908;-43
2023/04/04 18:11:02;;;;;;;;;;;;;;;;;;5086160;28;19961;-42
2023/04/04 18:13:28;;;;;;;;;;;;;;;;;;5086269;28;19919;-42
2023/04/04 18:15:54;;;;;;;;;;;;;;;;;;5085225;28;19908;-42
2023/04/04 18:18:20;;;;;;;;;;;;;;;;;;5086987;28;19931;-44
2023/04/04 18:20:49;;;;;;;;;;;;;;;;;;5085075;28;19931;-43
2023/04/04 18:23:16;;;;;;;;;;;;;;;;;;5085833;28;19911;-42
2023/04/04 18:25:42;;;;;;;;;;;;;;;;;;5085548;28;20472;-43
2023/04/04 18:28:08;;;;;;;;;;;;;;;;;;5066563;28;19912;-42
2023/04/04 18:30:34;;;;;;;;;;;;;;;;;;5084477;28;19907;-42
2023/04/04 18:33:01;;;;;;;;;;;;;;;;;;5084328;28;19981;-42
2023/04/04 18:35:28;;;;;;;;;;;;;;;;;;5084845;28;19954;-42
2023/04/04 18:37:54;;;;;;;;;;;;;;;;;;5084187;28;20332;-42
2023/04/04 18:40:21;;;;;;;;;;;;;;;;;;5083765;28;19908;-42
2023/04/04 18:42:47;;;;;;;;;;;;;;;;;;5077702;28;20003;-42
2023/04/04 18:45:15;;;;;;;;;;;;;;;;;;5091309;28;20002;-41
2023/04/04 18:47:42;;;;;;;;;;;;;;;;;;5101624;28;19915;-41
2023/04/04 18:50:08;;;;;;;;;;;;;;;;;;5084450;28;19963;-42
2023/04/04 18:52:35;;;;;;;;;;;;;;;;;;5084914;28;20341;-41
2023/04/04 18:55:01;;;;;;;;;;;;;;;;;;5078410;28;20448;-41
2023/04/04 18:57:27;;;;;;;;;;;;;;;;;;5075036;28;19953;-42
2023/04/04 18:59:53;;;;;;;;;;;;;;;;;;5084700;28;19916;-43
2023/04/04 19:02:19;;;;;;;;;;;;;;;;;;5066723;28;20016;-43
2023/04/04 19:04:45;;;;;;;;;;;;;;;;;;5086389;28;19915;-43
2023/04/04 19:07:11;;;;;;;;;;;;;;;;;;5084555;28;20345;-42
2023/04/04 19:09:37;;;;;;;;;;;;;;;;;;5085479;28;19908;-42
2023/04/04 19:12:03;;;;;;;;;;;;;;;;;;5065468;28;19916;-42
2023/04/04 19:14:28;;;;;;;;;;;;;;;;;;5101886;28;19907;-43
2023/04/04 19:16:54;;;;;;;;;;;;;;;;;;5104471;28;19907;-41
2023/04/04 19:19:20;;;;;;;;;;;;;;;;;;5084208;28;19908;-42
2023/04/04 19:21:46;;;;;;;;;;;;;;;;;;5085430;28;19911;-42
2023/04/04 19:24:13;;;;;;;;;;;;;;;;;;5084965;28;19912;-42
2023/04/04 19:26:39;;;;;;;;;;;;;;;;;;5085197;28;20027;-41
2023/04/04 19:29:05;;;;;;;;;;;;;;;;;;5084215;28;19919;-42
2023/04/04 19:31:31;;;;;;;;;;;;;;;;;;5084688;28;19908;-41
2023/04/04 19:33:57;;;;;;;;;;;;;;;;;;5085943;28;19908;-42
2023/04/04 19:36:23;;;;;;;;;;;;;;;;;;5068362;28;19911;-41
2023/04/04 19:38:49;;;;;;;;;;;;;;;;;;5085378;28;20507;-41
2023/04/04 19:41:15;;;;;;;;;;;;;;;;;;5084916;28;19954;-41
2023/04/04 19:43:41;;;;;;;;;;;;;;;;;;5084909;28;19912;-41
2023/04/04 19:46:08;;;;;;;;;;;;;;;;;;5085746;28;19969;-42
2023/04/04 19:48:34;;;;;;;;;;;;;;;;;;5085778;28;19912;-41
2023/04/04 19:51:01;;;;;;;;;;;;;;;;;;5083862;28;20002;-41
2023/04/04 19:53:26;;;;;;;;;;;;;;;;;;5084214;28;19912;-42
2023/04/04 19:55:53;;;;;;;;;;;;;;;;;;5083713;28;19914;-41
2023/04/04 19:58:20;;;;;;;;;;;;;;;;;;5081723;28;20335;-42
2023/04/04 20:00:46;;;;;;;;;;;;;;;;;;5084296;28;19931;-42
2023/04/04 20:03:12;;;;;;;;;;;;;;;;;;5083750;28;19958;-42
2023/04/04 20:05:38;;;;;;;;;;;;;;;;;;5083777;28;20038;-41
2023/04/04 20:08:04;;;;;;;;;;;;;;;;;;5083859;28;19931;-42
2023/04/04 20:10:30;;;;;;;;;;;;;;;;;;5083952;28;19908;-42
2023/04/04 20:12:55;;;;;;;;;;;;;;;;;;5084738;28;19915;-41
2023/04/04 20:15:21;;;;;;;;;;;;;;;;;;5086461;28;19947;-42
2023/04/04 20:17:48;;;;;;;;;;;;;;;;;;5088388;28;19908;-42
2023/04/04 20:20:14;;;;;;;;;;;;;;;;;;5086738;28;19919;-41
2023/04/04 20:22:41;;;;;;;;;;;;;;;;;;5087577;28;19907;-42
2023/04/04 20:25:08;;;;;;;;;;;;;;;;;;5087173;28;19904;-42
2023/04/04 20:27:35;;;;;;;;;;;;;;;;;;5087843;28;19908;-43
2023/04/04 20:30:02;;;;;;;;;;;;;;;;;;5087146;28;20374;-42
2023/04/04 20:32:27;;;;;;;;;;;;;;;;;;5088226;28;20293;-42
2023/04/04 20:34:55;;;;;;;;;;;;;;;;;;5086830;28;20465;-42
2023/04/04 20:37:20;;;;;;;;;;;;;;;;;;5086376;28;19915;-41
2023/04/04 20:39:46;;;;;;;;;;;;;;;;;;5086942;28;20271;-42
2023/04/04 20:42:12;;;;;;;;;;;;;;;;;;5086604;28;19965;-41
2023/04/04 20:44:38;;;;;;;;;;;;;;;;;;5086969;28;20298;-41
2023/04/04 20:47:04;;;;;;;;;;;;;;;;;;5086887;28;19912;-41
2023/04/04 20:49:30;;;;;;;;;;;;;;;;;;5068789;28;20270;-41
2023/04/04 20:51:56;;;;;;;;;;;;;;;;;;5087433;28;19911;-42
2023/04/04 20:54:23;;;;;;;;;;;;;;;;;;5086207;28;20397;-41
2023/04/04 20:56:52;;;;;;;;;;;;;;;;;;5087536;28;19915;-41
2023/04/04 20:59:18;;;;;;;;;;;;;;;;;;5086929;28;20247;-41
2023/04/04 21:01:44;;;;;;;;;;;;;;;;;;5068325;28;19908;-41
2023/04/04 21:04:10;;;;;;;;;;;;;;;;;;5086319;28;19908;-41
2023/04/04 21:06:36;;;;;;;;;;;;;;;;;;5086560;28;20073;-41
2023/04/04 21:09:03;;;;;;;;;;;;;;;;;;5086592;28;19904;-41
2023/04/04 21:11:29;;;;;;;;;;;;;;;;;;5087659;28;20294;-41
2023/04/04 21:13:55;;;;;;;;;;;;;;;;;;5086892;28;20014;-40
2023/04/04 21:16:21;;;;;;;;;;;;;;;;;;5086424;28;20003;-41
2023/04/04 21:18:46;;;;;;;;;;;;;;;;;;5085037;28;20412;-41
2023/04/04 21:21:15;;;;;;;;;;;;;;;;;;5085803;28;19958;-42
2023/04/04 21:23:41;;;;;;;;;;;;;;;;;;5086310;28;19911;-41
2023/04/04 21:26:08;;;;;;;;;;;;;;;;;;5085006;28;20390;-42
2023/04/04 21:28:35;;;;;;;;;;;;;;;;;;5086088;28;19915;-41
2023/04/04 21:31:01;;;;;;;;;;;;;;;;;;5085591;28;19919;-40
2023/04/04 21:33:27;;;;;;;;;;;;;;;;;;5086513;28;20298;-41
2023/04/04 21:35:53;;;;;;;;;;;;;;;;;;5085965;28;19904;-41
2023/04/04 21:38:19;;;;;;;;;;;;;;;;;;5067710;28;19908;-41
2023/04/04 21:40:45;;;;;;;;;;;;;;;;;;5067534;28;20389;-41
2023/04/04 21:43:11;;;;;;;;;;;;;;;;;;5085882;28;19934;-41
2023/04/04 21:45:38;;;;;;;;;;;;;;;;;;5085925;28;20003;-40
2023/04/04 21:48:05;;;;;;;;;;;;;;;;;;5085455;28;19919;-41
2023/04/04 21:50:31;;;;;;;;;;;;;;;;;;5067087;28;20341;-41
2023/04/04 21:52:58;;;;;;;;;;;;;;;;;;5086564;28;19908;-42
2023/04/04 21:55:24;;;;;;;;;;;;;;;;;;5067485;28;20426;-41
2023/04/04 21:57:50;;;;;;;;;;;;;;;;;;5085662;28;19908;-41
2023/04/04 22:00:17;;;;;;;;;;;;;;;;;;5066712;28;20054;-41
2023/04/04 22:02:43;;;;;;;;;;;;;;;;;;5085222;28;19916;-41
2023/04/04 22:05:09;;;;;;;;;;;;;;;;;;5084988;28;20488;-41
2023/04/04 22:07:36;;;;;;;;;;;;;;;;;;5085658;28;20151;-41
2023/04/04 22:10:03;;;;;;;;;;;;;;;;;;5084622;28;20286;-41
2023/04/04 22:12:32;;;;;;;;;;;;;;;;;;5086442;28;20127;-41
2023/04/04 22:14:59;;;;;;;;;;;;;;;;;;5067302;28;20290;-41
2023/04/04 22:17:26;;;;;;;;;;;;;;;;;;5086056;28;19903;-41
2023/04/04 22:19:58;;;;;;;;;;;;;;;;;;5084371;28;19912;-40
2023/04/04 22:22:28;;;;;;;;;;;;;;;;;;5085914;28;19908;-41
2023/04/04 22:25:03;;;;;;;;;;;;;;;;;;5084845;28;20406;-41